sensor_id;sensor_type;location;lat;lon;timestamp;temperature;humidity
26599;DHT22;14240;51.064;16.612;2023-05-02T00:01:49;13.00;99.90
26599;DHT22;14240;51.064;16.612;2023-05-02T00:04:16;13.10;99.90
26599;DHT22;14240;51.064;16.612;2023-05-02T00:06:42;13.20;99.90
26599;DHT22;14240;51.064;16.612;2023-05-02T00:09:08;13.20;99.90
26599;DHT22;14240;51.064;16.612;2023-05-02T00:11:33;13.20;99.90
26599;DHT22;14240;51.064;16.612;2023-05-02T00:13:59;13.30;99.90
26599;DHT22;14240;51.064;16.612;2023-05-02T00:16:25;13.30;99.90
26599;DHT22;14240;51.064;16.612;2023-05-02T00:18:50;13.40;99.90
26599;DHT22;14240;51.064;16.612;2023-05-02T00:21:16;13.40;99.90
26599;DHT22;14240;51.064;16.612;2023-05-02T00:23:42;13.40;99.90
26599;DHT22;14240;51.064;16.612;2023-05-02T00:26:08;13.50;99.90
26599;DHT22;14240;51.064;16.612;2023-05-02T00:28:34;13.50;99.90
26599;DHT22;14240;51.064;16.612;2023-05-02T00:31:00;13.50;99.90
26599;DHT22;14240;51.064;16.612;2023-05-02T00:33:26;13.50;99.90
26599;DHT22;14240;51.064;16.612;2023-05-02T00:35:51;13.60;99.90
26599;DHT22;14240;51.064;16.612;2023-05-02T00:38:17;13.50;99.90
26599;DHT22;14240;51.064;16.612;2023-05-02T00:40:47;13.60;99.90
26599;DHT22;14240;51.064;16.612;2023-05-02T00:43:14;13.60;99.90
26599;DHT22;14240;51.064;16.612;2023-05-02T00:45:42;13.50;99.90
26599;DHT22;14240;51.064;16.612;2023-05-02T00:48:09;13.50;99.90
26599;DHT22;14240;51.064;16.612;2023-05-02T00:50:37;13.50;99.90
26599;DHT22;14240;51.064;16.612;2023-05-02T00:53:05;13.50;99.90
26599;DHT22;14240;51.064;16.612;2023-05-02T00:55:32;13.50;99.90
26599;DHT22;14240;51.064;16.612;2023-05-02T00:58:04;13.50;99.90
26599;DHT22;14240;51.064;16.612;2023-05-02T01:03:17;13.50;99.90
26599;DHT22;14240;51.064;16.612;2023-05-02T01:05:49;13.50;99.90
26599;DHT22;14240;51.064;16.612;2023-05-02T01:08:38;13.50;99.90
26599;DHT22;14240;51.064;16.612;2023-05-02T01:11:14;13.50;99.90
26599;DHT22;14240;51.064;16.612;2023-05-02T01:13:42;13.50;99.90
26599;DHT22;14240;51.064;16.612;2023-05-02T01:16:11;13.50;99.90
26599;DHT22;14240;51.064;16.612;2023-05-02T01:18:39;13.50;99.90
26599;DHT22;14240;51.064;16.612;2023-05-02T01:21:08;13.50;99.90
26599;DHT22;14240;51.064;16.612;2023-05-02T01:27:10;13.50;99.90
26599;DHT22;14240;51.064;16.612;2023-05-02T01:29:40;13.40;99.90
26599;DHT22;14240;51.064;16.612;2023-05-02T01:32:07;13.40;99.90
26599;DHT22;14240;51.064;16.612;2023-05-02T01:34:36;13.40;99.90
26599;DHT22;14240;51.064;16.612;2023-05-02T01:37:05;13.30;99.90
26599;DHT22;14240;51.064;16.612;2023-05-02T01:39:32;13.30;99.90
26599;DHT22;14240;51.064;16.612;2023-05-02T01:42:01;13.40;99.90
26599;DHT22;14240;51.064;16.612;2023-05-02T01:44:28;13.40;99.90
26599;DHT22;14240;51.064;16.612;2023-05-02T01:46:55;13.40;99.90
26599;DHT22;14240;51.064;16.612;2023-05-02T01:49:23;13.40;99.90
26599;DHT22;14240;51.064;16.612;2023-05-02T01:51:50;13.40;99.90
26599;DHT22;14240;51.064;16.612;2023-05-02T01:54:19;13.40;99.90
26599;DHT22;14240;51.064;16.612;2023-05-02T01:56:45;13.40;99.90
26599;DHT22;14240;51.064;16.612;2023-05-02T01:59:16;13.40;99.90
26599;DHT22;14240;51.064;16.612;2023-05-02T02:01:42;13.40;99.90
26599;DHT22;14240;51.064;16.612;2023-05-02T02:04:10;13.30;99.90
26599;DHT22;14240;51.064;16.612;2023-05-02T02:06:38;13.30;99.90
26599;DHT22;14240;51.064;16.612;2023-05-02T02:09:05;13.20;99.90
26599;DHT22;14240;51.064;16.612;2023-05-02T02:11:35;13.20;99.90
26599;DHT22;14240;51.064;16.612;2023-05-02T02:14:11;13.20;99.90
26599;DHT22;14240;51.064;16.612;2023-05-02T02:16:40;13.20;99.90
26599;DHT22;14240;51.064;16.612;2023-05-02T02:19:08;13.20;99.90
26599;DHT22;14240;51.064;16.612;2023-05-02T02:21:35;13.20;99.90
26599;DHT22;14240;51.064;16.612;2023-05-02T02:24:03;13.10;99.90
26599;DHT22;14240;51.064;16.612;2023-05-02T02:26:29;13.10;99.90
26599;DHT22;14240;51.064;16.612;2023-05-02T02:28:55;13.10;99.90
26599;DHT22;14240;51.064;16.612;2023-05-02T02:31:21;13.10;99.90
26599;DHT22;14240;51.064;16.612;2023-05-02T02:33:49;13.20;99.90
26599;DHT22;14240;51.064;16.612;2023-05-02T02:42:02;13.20;99.90
26599;DHT22;14240;51.064;16.612;2023-05-02T02:44:42;13.20;99.90
26599;DHT22;14240;51.064;16.612;2023-05-02T02:55:39;13.20;99.90
26599;DHT22;14240;51.064;16.612;2023-05-02T03:00:39;13.20;99.90
26599;DHT22;14240;51.064;16.612;2023-05-02T03:03:06;13.20;99.90
26599;DHT22;14240;51.064;16.612;2023-05-02T03:05:33;13.30;99.90
26599;DHT22;14240;51.064;16.612;2023-05-02T03:07:59;13.30;99.90
26599;DHT22;14240;51.064;16.612;2023-05-02T03:10:25;13.30;99.90
26599;DHT22;14240;51.064;16.612;2023-05-02T03:12:51;13.30;99.90
26599;DHT22;14240;51.064;16.612;2023-05-02T03:18:17;13.30;99.90
26599;DHT22;14240;51.064;16.612;2023-05-02T03:20:43;13.20;99.90
26599;DHT22;14240;51.064;16.612;2023-05-02T03:23:09;13.20;99.90
26599;DHT22;14240;51.064;16.612;2023-05-02T03:25:35;13.20;99.90
26599;DHT22;14240;51.064;16.612;2023-05-02T03:28:01;13.20;99.90
26599;DHT22;14240;51.064;16.612;2023-05-02T03:30:27;13.20;99.90
26599;DHT22;14240;51.064;16.612;2023-05-02T03:32:53;13.20;99.90
26599;DHT22;14240;51.064;16.612;2023-05-02T03:35:21;13.10;99.90
26599;DHT22;14240;51.064;16.612;2023-05-02T03:37:47;13.10;99.90
26599;DHT22;14240;51.064;16.612;2023-05-02T03:40:13;13.10;99.90
26599;DHT22;14240;51.064;16.612;2023-05-02T03:42:41;13.10;99.90
26599;DHT22;14240;51.064;16.612;2023-05-02T03:45:07;13.00;99.90
26599;DHT22;14240;51.064;16.612;2023-05-02T03:47:33;13.00;99.90
26599;DHT22;14240;51.064;16.612;2023-05-02T03:49:59;13.00;99.90
26599;DHT22;14240;51.064;16.612;2023-05-02T03:52:25;13.00;99.90
26599;DHT22;14240;51.064;16.612;2023-05-02T03:54:53;12.90;99.90
26599;DHT22;14240;51.064;16.612;2023-05-02T03:57:19;12.90;99.90
26599;DHT22;14240;51.064;16.612;2023-05-02T03:59:45;12.90;99.90
26599;DHT22;14240;51.064;16.612;2023-05-02T04:02:11;12.90;99.90
26599;DHT22;14240;51.064;16.612;2023-05-02T04:04:37;12.90;99.90
26599;DHT22;14240;51.064;16.612;2023-05-02T04:07:04;12.90;99.90
26599;DHT22;14240;51.064;16.612;2023-05-02T04:09:32;12.80;99.90
26599;DHT22;14240;51.064;16.612;2023-05-02T04:11:58;12.90;99.90
26599;DHT22;14240;51.064;16.612;2023-05-02T04:14:24;12.90;99.90
26599;DHT22;14240;51.064;16.612;2023-05-02T04:16:50;12.90;99.90
26599;DHT22;14240;51.064;16.612;2023-05-02T04:19:17;12.90;99.90
26599;DHT22;14240;51.064;16.612;2023-05-02T04:21:44;12.90;99.90
26599;DHT22;14240;51.064;16.612;2023-05-02T04:24:10;12.90;99.90
26599;DHT22;14240;51.064;16.612;2023-05-02T04:26:36;12.90;99.90
26599;DHT22;14240;51.064;16.612;2023-05-02T04:29:02;13.00;99.90
26599;DHT22;14240;51.064;16.612;2023-05-02T04:31:32;12.90;99.90
26599;DHT22;14240;51.064;16.612;2023-05-02T04:33:57;13.00;99.90
26599;DHT22;14240;51.064;16.612;2023-05-02T04:36:24;13.10;99.90
26599;DHT22;14240;51.064;16.612;2023-05-02T04:38:52;13.10;99.90
26599;DHT22;14240;51.064;16.612;2023-05-02T04:41:18;13.00;99.90
26599;DHT22;14240;51.064;16.612;2023-05-02T04:43:44;13.10;99.90
26599;DHT22;14240;51.064;16.612;2023-05-02T04:46:10;13.10;99.90
26599;DHT22;14240;51.064;16.612;2023-05-02T04:48:36;13.10;99.90
26599;DHT22;14240;51.064;16.612;2023-05-02T04:51:01;13.10;99.90
26599;DHT22;14240;51.064;16.612;2023-05-02T04:53:27;13.10;99.90
26599;DHT22;14240;51.064;16.612;2023-05-02T04:55:53;13.10;99.90
26599;DHT22;14240;51.064;16.612;2023-05-02T04:58:19;13.10;99.90
26599;DHT22;14240;51.064;16.612;2023-05-02T05:00:44;13.10;99.90
26599;DHT22;14240;51.064;16.612;2023-05-02T05:03:10;13.10;99.90
26599;DHT22;14240;51.064;16.612;2023-05-02T05:05:36;13.10;99.90
26599;DHT22;14240;51.064;16.612;2023-05-02T05:08:02;13.20;99.90
26599;DHT22;14240;51.064;16.612;2023-05-02T05:10:28;13.20;99.90
26599;DHT22;14240;51.064;16.612;2023-05-02T05:12:54;13.20;99.90
26599;DHT22;14240;51.064;16.612;2023-05-02T05:15:20;13.30;99.90
26599;DHT22;14240;51.064;16.612;2023-05-02T05:17:48;13.30;99.90
26599;DHT22;14240;51.064;16.612;2023-05-02T05:20:14;13.30;99.90
26599;DHT22;14240;51.064;16.612;2023-05-02T05:22:40;13.40;99.90
26599;DHT22;14240;51.064;16.612;2023-05-02T05:25:07;13.40;99.90
26599;DHT22;14240;51.064;16.612;2023-05-02T05:27:34;13.50;99.90
26599;DHT22;14240;51.064;16.612;2023-05-02T05:30:00;13.50;99.90
26599;DHT22;14240;51.064;16.612;2023-05-02T05:32:26;13.50;99.90
26599;DHT22;14240;51.064;16.612;2023-05-02T05:34:52;13.60;99.90
26599;DHT22;14240;51.064;16.612;2023-05-02T05:37:19;13.60;99.90
26599;DHT22;14240;51.064;16.612;2023-05-02T05:39:44;13.70;99.90
26599;DHT22;14240;51.064;16.612;2023-05-02T05:42:11;13.70;99.90
26599;DHT22;14240;51.064;16.612;2023-05-02T05:44:38;13.80;99.90
26599;DHT22;14240;51.064;16.612;2023-05-02T05:47:03;13.80;99.90
26599;DHT22;14240;51.064;16.612;2023-05-02T05:49:30;13.90;99.90
26599;DHT22;14240;51.064;16.612;2023-05-02T05:51:56;13.90;99.90
26599;DHT22;14240;51.064;16.612;2023-05-02T05:54:22;14.00;99.90
26599;DHT22;14240;51.064;16.612;2023-05-02T05:56:48;14.00;99.90
26599;DHT22;14240;51.064;16.612;2023-05-02T05:59:17;14.00;99.90
26599;DHT22;14240;51.064;16.612;2023-05-02T06:01:42;14.10;99.90
26599;DHT22;14240;51.064;16.612;2023-05-02T06:04:08;14.20;99.90
26599;DHT22;14240;51.064;16.612;2023-05-02T06:06:34;14.30;99.90
26599;DHT22;14240;51.064;16.612;2023-05-02T06:09:00;14.30;99.90
26599;DHT22;14240;51.064;16.612;2023-05-02T06:11:26;14.40;99.90
26599;DHT22;14240;51.064;16.612;2023-05-02T06:13:52;14.50;99.90
26599;DHT22;14240;51.064;16.612;2023-05-02T06:16:19;14.50;99.90
26599;DHT22;14240;51.064;16.612;2023-05-02T06:18:45;14.50;99.90
26599;DHT22;14240;51.064;16.612;2023-05-02T06:21:11;14.60;99.90
26599;DHT22;14240;51.064;16.612;2023-05-02T06:23:37;14.60;99.90
26599;DHT22;14240;51.064;16.612;2023-05-02T06:26:04;14.70;99.90
26599;DHT22;14240;51.064;16.612;2023-05-02T06:28:30;14.80;99.90
26599;DHT22;14240;51.064;16.612;2023-05-02T06:31:05;14.80;99.90
26599;DHT22;14240;51.064;16.612;2023-05-02T06:33:32;14.90;99.90
26599;DHT22;14240;51.064;16.612;2023-05-02T06:35:58;14.90;99.90
26599;DHT22;14240;51.064;16.612;2023-05-02T06:38:24;14.80;99.90
26599;DHT22;14240;51.064;16.612;2023-05-02T06:40:51;15.10;99.90
26599;DHT22;14240;51.064;16.612;2023-05-02T06:43:17;15.10;99.90
26599;DHT22;14240;51.064;16.612;2023-05-02T06:45:43;15.20;99.90
26599;DHT22;14240;51.064;16.612;2023-05-02T06:48:09;15.30;99.90
26599;DHT22;14240;51.064;16.612;2023-05-02T06:50:35;15.30;99.90
26599;DHT22;14240;51.064;16.612;2023-05-02T06:53:02;15.40;99.90
26599;DHT22;14240;51.064;16.612;2023-05-02T06:55:28;15.40;99.90
26599;DHT22;14240;51.064;16.612;2023-05-02T06:57:54;15.50;99.90
26599;DHT22;14240;51.064;16.612;2023-05-02T07:00:20;15.60;99.90
26599;DHT22;14240;51.064;16.612;2023-05-02T07:02:47;15.60;99.90
26599;DHT22;14240;51.064;16.612;2023-05-02T07:05:14;15.70;99.90
26599;DHT22;14240;51.064;16.612;2023-05-02T07:07:41;15.90;99.90
26599;DHT22;14240;51.064;16.612;2023-05-02T07:10:07;16.00;99.90
26599;DHT22;14240;51.064;16.612;2023-05-02T07:12:33;16.10;99.90
26599;DHT22;14240;51.064;16.612;2023-05-02T07:14:59;16.30;99.90
26599;DHT22;14240;51.064;16.612;2023-05-02T07:17:24;16.40;99.90
26599;DHT22;14240;51.064;16.612;2023-05-02T07:19:51;16.50;99.90
26599;DHT22;14240;51.064;16.612;2023-05-02T07:22:17;16.60;99.90
26599;DHT22;14240;51.064;16.612;2023-05-02T07:24:42;16.80;99.90
26599;DHT22;14240;51.064;16.612;2023-05-02T07:27:09;17.00;99.90
26599;DHT22;14240;51.064;16.612;2023-05-02T07:29:35;17.20;99.90
26599;DHT22;14240;51.064;16.612;2023-05-02T07:32:02;17.40;99.90
26599;DHT22;14240;51.064;16.612;2023-05-02T07:34:28;17.50;99.90
26599;DHT22;14240;51.064;16.612;2023-05-02T07:36:53;17.70;99.90
26599;DHT22;14240;51.064;16.612;2023-05-02T07:39:20;18.00;99.90
26599;DHT22;14240;51.064;16.612;2023-05-02T07:41:46;18.10;99.90
26599;DHT22;14240;51.064;16.612;2023-05-02T07:44:12;18.30;99.90
26599;DHT22;14240;51.064;16.612;2023-05-02T07:46:37;18.40;99.90
26599;DHT22;14240;51.064;16.612;2023-05-02T07:49:03;18.50;99.90
26599;DHT22;14240;51.064;16.612;2023-05-02T07:51:29;18.60;99.90
26599;DHT22;14240;51.064;16.612;2023-05-02T07:53:55;18.70;99.90
26599;DHT22;14240;51.064;16.612;2023-05-02T07:56:24;18.70;99.90
26599;DHT22;14240;51.064;16.612;2023-05-02T07:58:50;18.80;99.90
26599;DHT22;14240;51.064;16.612;2023-05-02T08:01:16;18.90;99.90
26599;DHT22;14240;51.064;16.612;2023-05-02T08:03:43;19.00;99.90
26599;DHT22;14240;51.064;16.612;2023-05-02T08:06:08;19.10;99.90
26599;DHT22;14240;51.064;16.612;2023-05-02T08:08:35;19.20;99.90
26599;DHT22;14240;51.064;16.612;2023-05-02T08:11:01;19.30;99.90
26599;DHT22;14240;51.064;16.612;2023-05-02T08:13:26;19.30;99.90
26599;DHT22;14240;51.064;16.612;2023-05-02T08:15:52;19.40;99.90
26599;DHT22;14240;51.064;16.612;2023-05-02T08:18:26;19.40;99.90
26599;DHT22;14240;51.064;16.612;2023-05-02T08:20:55;19.40;99.90
26599;DHT22;14240;51.064;16.612;2023-05-02T08:23:23;19.40;99.90
26599;DHT22;14240;51.064;16.612;2023-05-02T08:25:48;19.40;99.90
26599;DHT22;14240;51.064;16.612;2023-05-02T08:28:14;19.40;99.90
26599;DHT22;14240;51.064;16.612;2023-05-02T08:30:40;19.30;99.90
26599;DHT22;14240;51.064;16.612;2023-05-02T08:33:06;19.30;99.90
26599;DHT22;14240;51.064;16.612;2023-05-02T08:35:32;19.20;99.90
26599;DHT22;14240;51.064;16.612;2023-05-02T08:37:57;19.10;99.90
26599;DHT22;14240;51.064;16.612;2023-05-02T08:40:24;19.10;99.90
26599;DHT22;14240;51.064;16.612;2023-05-02T08:42:51;19.10;99.90
26599;DHT22;14240;51.064;16.612;2023-05-02T08:45:17;19.00;99.90
26599;DHT22;14240;51.064;16.612;2023-05-02T08:47:44;19.00;99.90
26599;DHT22;14240;51.064;16.612;2023-05-02T08:50:11;19.00;99.90
26599;DHT22;14240;51.064;16.612;2023-05-02T08:52:37;18.90;99.90
26599;DHT22;14240;51.064;16.612;2023-05-02T08:55:06;18.90;99.90
26599;DHT22;14240;51.064;16.612;2023-05-02T08:57:37;18.90;99.90
26599;DHT22;14240;51.064;16.612;2023-05-02T09:00:04;19.00;99.90
26599;DHT22;14240;51.064;16.612;2023-05-02T09:05:19;18.90;99.90
26599;DHT22;14240;51.064;16.612;2023-05-02T09:07:51;18.90;99.90
26599;DHT22;14240;51.064;16.612;2023-05-02T09:10:17;18.90;99.90
26599;DHT22;14240;51.064;16.612;2023-05-02T09:12:42;18.90;99.90
26599;DHT22;14240;51.064;16.612;2023-05-02T09:15:13;18.90;99.90
26599;DHT22;14240;51.064;16.612;2023-05-02T09:17:44;18.90;99.90
26599;DHT22;14240;51.064;16.612;2023-05-02T09:20:12;18.90;99.90
26599;DHT22;14240;51.064;16.612;2023-05-02T09:22:38;18.80;99.90
26599;DHT22;14240;51.064;16.612;2023-05-02T09:25:07;18.80;99.90
26599;DHT22;14240;51.064;16.612;2023-05-02T09:27:52;18.80;99.90
26599;DHT22;14240;51.064;16.612;2023-05-02T09:30:23;18.80;99.90
26599;DHT22;14240;51.064;16.612;2023-05-02T09:32:50;18.90;99.90
26599;DHT22;14240;51.064;16.612;2023-05-02T09:35:16;18.90;99.90
26599;DHT22;14240;51.064;16.612;2023-05-02T09:37:52;18.90;99.90
26599;DHT22;14240;51.064;16.612;2023-05-02T09:40:18;18.90;99.90
26599;DHT22;14240;51.064;16.612;2023-05-02T09:42:44;19.00;99.90
26599;DHT22;14240;51.064;16.612;2023-05-02T09:45:31;19.00;99.90
26599;DHT22;14240;51.064;16.612;2023-05-02T09:48:01;19.10;99.90
26599;DHT22;14240;51.064;16.612;2023-05-02T09:50:37;19.10;99.90
26599;DHT22;14240;51.064;16.612;2023-05-02T09:53:07;19.10;99.90
26599;DHT22;14240;51.064;16.612;2023-05-02T09:55:34;19.10;99.90
26599;DHT22;14240;51.064;16.612;2023-05-02T09:58:00;19.20;99.90
26599;DHT22;14240;51.064;16.612;2023-05-02T10:00:41;19.20;99.90
26599;DHT22;14240;51.064;16.612;2023-05-02T10:03:08;19.30;99.90
26599;DHT22;14240;51.064;16.612;2023-05-02T10:05:38;19.40;99.90
26599;DHT22;14240;51.064;16.612;2023-05-02T10:08:05;19.40;99.90
26599;DHT22;14240;51.064;16.612;2023-05-02T10:10:34;19.50;99.80
26599;DHT22;14240;51.064;16.612;2023-05-02T10:13:02;19.60;99.60
26599;DHT22;14240;51.064;16.612;2023-05-02T10:15:30;19.70;99.20
26599;DHT22;14240;51.064;16.612;2023-05-02T10:17:58;19.70;99.00
26599;DHT22;14240;51.064;16.612;2023-05-02T10:20:30;19.80;99.70
26599;DHT22;14240;51.064;16.612;2023-05-02T10:23:00;19.80;99.10
26599;DHT22;14240;51.064;16.612;2023-05-02T10:25:29;19.90;98.80
26599;DHT22;14240;51.064;16.612;2023-05-02T10:27:58;20.00;97.90
26599;DHT22;14240;51.064;16.612;2023-05-02T10:30:25;20.10;98.30
26599;DHT22;14240;51.064;16.612;2023-05-02T10:32:51;20.10;98.00
26599;DHT22;14240;51.064;16.612;2023-05-02T10:35:19;20.20;97.70
26599;DHT22;14240;51.064;16.612;2023-05-02T10:37:46;20.30;97.50
26599;DHT22;14240;51.064;16.612;2023-05-02T10:40:13;20.40;97.60
26599;DHT22;14240;51.064;16.612;2023-05-02T10:42:42;20.50;97.20
26599;DHT22;14240;51.064;16.612;2023-05-02T10:45:12;20.60;96.70
26599;DHT22;14240;51.064;16.612;2023-05-02T10:47:37;20.60;97.10
26599;DHT22;14240;51.064;16.612;2023-05-02T10:50:03;20.70;96.90
26599;DHT22;14240;51.064;16.612;2023-05-02T10:52:34;20.80;96.70
26599;DHT22;14240;51.064;16.612;2023-05-02T10:58:20;20.90;96.30
26599;DHT22;14240;51.064;16.612;2023-05-02T11:00:46;20.90;96.10
26599;DHT22;14240;51.064;16.612;2023-05-02T11:03:12;20.90;96.90
26599;DHT22;14240;51.064;16.612;2023-05-02T11:06:04;20.90;97.20
26599;DHT22;14240;51.064;16.612;2023-05-02T11:08:31;20.90;97.20
26599;DHT22;14240;51.064;16.612;2023-05-02T11:11:37;20.90;97.20
26599;DHT22;14240;51.064;16.612;2023-05-02T11:14:02;20.90;97.00
26599;DHT22;14240;51.064;16.612;2023-05-02T11:19:27;20.90;97.50
26599;DHT22;14240;51.064;16.612;2023-05-02T11:24:51;20.90;96.00
26599;DHT22;14240;51.064;16.612;2023-05-02T11:30:05;20.90;95.70
26599;DHT22;14240;51.064;16.612;2023-05-02T11:35:17;20.80;96.30
26599;DHT22;14240;51.064;16.612;2023-05-02T11:37:51;20.90;96.20
26599;DHT22;14240;51.064;16.612;2023-05-02T11:40:17;20.90;96.50
26599;DHT22;14240;51.064;16.612;2023-05-02T11:42:43;21.00;96.80
26599;DHT22;14240;51.064;16.612;2023-05-02T11:45:09;21.10;96.10
26599;DHT22;14240;51.064;16.612;2023-05-02T11:47:35;21.10;96.20
26599;DHT22;14240;51.064;16.612;2023-05-02T11:50:04;21.10;96.00
26599;DHT22;14240;51.064;16.612;2023-05-02T11:52:29;21.20;96.10
26599;DHT22;14240;51.064;16.612;2023-05-02T11:54:56;21.20;96.20
26599;DHT22;14240;51.064;16.612;2023-05-02T11:57:22;21.10;96.10
26599;DHT22;14240;51.064;16.612;2023-05-02T11:59:52;21.20;96.40
26599;DHT22;14240;51.064;16.612;2023-05-02T12:02:18;21.30;96.30
26599;DHT22;14240;51.064;16.612;2023-05-02T12:04:44;21.30;96.10
26599;DHT22;14240;51.064;16.612;2023-05-02T12:07:10;21.30;95.50
26599;DHT22;14240;51.064;16.612;2023-05-02T12:09:39;21.30;96.00
26599;DHT22;14240;51.064;16.612;2023-05-02T12:12:17;21.40;96.10
26599;DHT22;14240;51.064;16.612;2023-05-02T12:14:43;21.30;95.80
26599;DHT22;14240;51.064;16.612;2023-05-02T12:17:09;21.30;95.30
26599;DHT22;14240;51.064;16.612;2023-05-02T12:19:35;21.30;95.40
26599;DHT22;14240;51.064;16.612;2023-05-02T12:22:03;21.30;94.90
26599;DHT22;14240;51.064;16.612;2023-05-02T12:24:29;21.30;94.80
26599;DHT22;14240;51.064;16.612;2023-05-02T12:27:12;21.30;95.20
26599;DHT22;14240;51.064;16.612;2023-05-02T12:29:45;21.20;95.50
26599;DHT22;14240;51.064;16.612;2023-05-02T12:32:12;21.20;95.80
26599;DHT22;14240;51.064;16.612;2023-05-02T12:34:38;21.10;96.00
26599;DHT22;14240;51.064;16.612;2023-05-02T12:37:05;21.10;95.50
26599;DHT22;14240;51.064;16.612;2023-05-02T12:39:38;21.00;95.30
26599;DHT22;14240;51.064;16.612;2023-05-02T12:42:11;20.90;94.60
26599;DHT22;14240;51.064;16.612;2023-05-02T12:44:38;20.90;95.10
26599;DHT22;14240;51.064;16.612;2023-05-02T12:47:05;20.80;95.70
26599;DHT22;14240;51.064;16.612;2023-05-02T12:49:31;20.80;95.80
26599;DHT22;14240;51.064;16.612;2023-05-02T12:51:57;20.80;96.20
26599;DHT22;14240;51.064;16.612;2023-05-02T12:54:23;20.80;96.30
26599;DHT22;14240;51.064;16.612;2023-05-02T12:56:51;20.80;95.80
26599;DHT22;14240;51.064;16.612;2023-05-02T12:59:30;20.90;95.90
26599;DHT22;14240;51.064;16.612;2023-05-02T13:01:57;20.90;94.30
26599;DHT22;14240;51.064;16.612;2023-05-02T13:04:36;20.80;94.10
26599;DHT22;14240;51.064;16.612;2023-05-02T13:07:03;20.80;94.10
26599;DHT22;14240;51.064;16.612;2023-05-02T13:09:29;20.70;93.80
26599;DHT22;14240;51.064;16.612;2023-05-02T13:11:54;20.70;93.50
26599;DHT22;14240;51.064;16.612;2023-05-02T13:14:21;20.70;93.50
26599;DHT22;14240;51.064;16.612;2023-05-02T13:16:48;20.60;93.30
26599;DHT22;14240;51.064;16.612;2023-05-02T13:19:14;20.60;94.00
26599;DHT22;14240;51.064;16.612;2023-05-02T13:21:40;20.70;94.30
26599;DHT22;14240;51.064;16.612;2023-05-02T13:24:05;20.70;93.80
26599;DHT22;14240;51.064;16.612;2023-05-02T13:26:31;20.70;93.50
26599;DHT22;14240;51.064;16.612;2023-05-02T13:28:57;20.60;92.90
26599;DHT22;14240;51.064;16.612;2023-05-02T13:31:22;20.60;93.20
26599;DHT22;14240;51.064;16.612;2023-05-02T13:33:48;20.60;93.40
26599;DHT22;14240;51.064;16.612;2023-05-02T13:36:14;20.60;93.60
26599;DHT22;14240;51.064;16.612;2023-05-02T13:38:40;20.60;93.50
26599;DHT22;14240;51.064;16.612;2023-05-02T13:41:05;20.60;93.50
26599;DHT22;14240;51.064;16.612;2023-05-02T13:43:31;20.60;93.40
26599;DHT22;14240;51.064;16.612;2023-05-02T13:45:57;20.60;94.10
26599;DHT22;14240;51.064;16.612;2023-05-02T13:48:23;20.60;94.30
26599;DHT22;14240;51.064;16.612;2023-05-02T13:50:49;20.60;94.50
26599;DHT22;14240;51.064;16.612;2023-05-02T13:53:15;20.60;94.10
26599;DHT22;14240;51.064;16.612;2023-05-02T13:55:41;20.60;93.60
26599;DHT22;14240;51.064;16.612;2023-05-02T13:58:06;20.60;93.00
26599;DHT22;14240;51.064;16.612;2023-05-02T14:00:32;20.50;93.10
26599;DHT22;14240;51.064;16.612;2023-05-02T14:02:59;20.50;93.30
26599;DHT22;14240;51.064;16.612;2023-05-02T14:05:24;20.50;93.20
26599;DHT22;14240;51.064;16.612;2023-05-02T14:07:50;20.40;93.00
26599;DHT22;14240;51.064;16.612;2023-05-02T14:10:16;20.40;93.10
26599;DHT22;14240;51.064;16.612;2023-05-02T14:12:42;20.40;92.60
26599;DHT22;14240;51.064;16.612;2023-05-02T14:15:08;20.30;92.60
26599;DHT22;14240;51.064;16.612;2023-05-02T14:17:34;20.30;92.80
26599;DHT22;14240;51.064;16.612;2023-05-02T14:20:00;20.30;93.50
26599;DHT22;14240;51.064;16.612;2023-05-02T14:22:25;20.30;92.90
26599;DHT22;14240;51.064;16.612;2023-05-02T14:24:51;20.30;92.50
26599;DHT22;14240;51.064;16.612;2023-05-02T14:27:17;20.20;93.00
26599;DHT22;14240;51.064;16.612;2023-05-02T14:29:46;20.20;93.30
26599;DHT22;14240;51.064;16.612;2023-05-02T14:32:13;20.20;93.70
26599;DHT22;14240;51.064;16.612;2023-05-02T14:34:39;20.20;94.00
26599;DHT22;14240;51.064;16.612;2023-05-02T14:37:06;20.20;94.20
26599;DHT22;14240;51.064;16.612;2023-05-02T14:39:34;20.10;94.00
26599;DHT22;14240;51.064;16.612;2023-05-02T14:42:00;20.10;94.20
26599;DHT22;14240;51.064;16.612;2023-05-02T14:44:29;20.00;94.00
26599;DHT22;14240;51.064;16.612;2023-05-02T14:46:55;20.00;94.00
26599;DHT22;14240;51.064;16.612;2023-05-02T14:49:21;20.00;94.60
26599;DHT22;14240;51.064;16.612;2023-05-02T14:51:47;20.00;95.20
26599;DHT22;14240;51.064;16.612;2023-05-02T14:54:13;20.00;95.20
26599;DHT22;14240;51.064;16.612;2023-05-02T14:56:41;19.90;95.10
26599;DHT22;14240;51.064;16.612;2023-05-02T14:59:07;19.90;95.10
26599;DHT22;14240;51.064;16.612;2023-05-02T15:01:33;19.90;95.30
26599;DHT22;14240;51.064;16.612;2023-05-02T15:03:58;19.80;95.40
26599;DHT22;14240;51.064;16.612;2023-05-02T15:06:28;19.80;95.30
26599;DHT22;14240;51.064;16.612;2023-05-02T15:08:59;19.80;95.60
26599;DHT22;14240;51.064;16.612;2023-05-02T15:11:28;19.70;95.70
26599;DHT22;14240;51.064;16.612;2023-05-02T15:13:54;19.70;95.90
26599;DHT22;14240;51.064;16.612;2023-05-02T15:16:20;19.70;95.80
26599;DHT22;14240;51.064;16.612;2023-05-02T15:18:46;19.60;95.90
26599;DHT22;14240;51.064;16.612;2023-05-02T15:21:12;19.50;96.00
26599;DHT22;14240;51.064;16.612;2023-05-02T15:23:37;19.50;95.90
26599;DHT22;14240;51.064;16.612;2023-05-02T15:26:03;19.30;95.70
26599;DHT22;14240;51.064;16.612;2023-05-02T15:28:29;19.30;96.00
26599;DHT22;14240;51.064;16.612;2023-05-02T15:30:55;19.30;96.30
26599;DHT22;14240;51.064;16.612;2023-05-02T15:33:21;19.20;96.40
26599;DHT22;14240;51.064;16.612;2023-05-02T15:35:57;19.20;96.50
26599;DHT22;14240;51.064;16.612;2023-05-02T15:38:23;19.10;96.70
26599;DHT22;14240;51.064;16.612;2023-05-02T15:40:56;19.10;96.40
26599;DHT22;14240;51.064;16.612;2023-05-02T15:43:23;19.10;96.40
26599;DHT22;14240;51.064;16.612;2023-05-02T15:45:53;19.00;96.70
26599;DHT22;14240;51.064;16.612;2023-05-02T15:48:20;19.10;96.50
26599;DHT22;14240;51.064;16.612;2023-05-02T15:50:46;19.00;96.30
26599;DHT22;14240;51.064;16.612;2023-05-02T15:53:13;19.00;96.20
26599;DHT22;14240;51.064;16.612;2023-05-02T15:55:40;18.90;95.80
26599;DHT22;14240;51.064;16.612;2023-05-02T15:58:08;18.90;95.50
26599;DHT22;14240;51.064;16.612;2023-05-02T16:00:34;18.90;95.70